createdAt,value
2018-06-15T00:03:27.645Z,41.77
2018-06-15T00:07:31.015Z,37.53
2018-06-15T00:11:34.360Z,37.33
2018-06-15T00:15:37.737Z,42.50
2018-06-15T00:19:41.123Z,38.60
2018-06-15T00:23:44.483Z,36.90
2018-06-15T00:27:47.962Z,32.83
2018-06-15T00:31:51.297Z,34.33
2018-06-15T00:35:54.609Z,39.33
2018-06-15T00:39:57.946Z,44.17
2018-06-15T00:44:01.291Z,35.47
2018-06-15T00:48:04.671Z,38.67
2018-06-15T00:52:08.025Z,36.37
2018-06-15T00:56:11.354Z,40.37
2018-06-15T01:00:14.871Z,38.10
2018-06-15T01:04:18.203Z,40.17
2018-06-15T01:08:21.639Z,42.67
2018-06-15T01:12:24.974Z,38.13
2018-06-15T01:16:28.290Z,38.00
2018-06-15T01:20:31.788Z,40.00
2018-06-15T01:24:35.143Z,44.63
2018-06-15T01:28:38.474Z,41.97
2018-06-15T01:32:41.815Z,40.90
2018-06-15T01:36:45.151Z,42.07
2018-06-15T01:40:48.520Z,44.27
2018-06-15T01:44:58.324Z,41.70
2018-06-15T01:49:01.660Z,40.53
2018-06-15T01:53:05.007Z,40.37
2018-06-15T01:57:08.359Z,39.03
2018-06-15T02:01:11.878Z,40.90
2018-06-15T02:05:15.335Z,43.43
2018-06-15T02:09:18.679Z,42.13
2018-06-15T02:13:22.044Z,40.97
2018-06-15T02:17:25.403Z,44.07
2018-06-15T02:21:29.704Z,48.13
2018-06-15T02:25:33.043Z,41.00
2018-06-15T02:29:36.371Z,41.83
2018-06-15T02:33:39.712Z,41.27
2018-06-15T02:37:43.086Z,45.27
2018-06-15T02:41:47.716Z,43.33
2018-06-15T02:45:51.067Z,43.13
2018-06-15T02:49:54.400Z,43.33
2018-06-15T02:53:57.749Z,40.20
2018-06-15T02:58:01.117Z,37.73
2018-06-15T03:02:04.612Z,43.50
2018-06-15T03:06:07.958Z,38.80
2018-06-15T03:10:11.283Z,46.03
2018-06-15T03:14:14.627Z,40.43
2018-06-15T03:18:17.995Z,41.53
2018-06-15T03:22:21.328Z,39.30
2018-06-15T03:26:24.780Z,39.67
2018-06-15T03:30:28.164Z,38.23
2018-06-15T03:34:31.494Z,40.47
2018-06-15T03:38:34.875Z,42.63
2018-06-15T03:42:38.215Z,40.20
2018-06-15T03:46:41.556Z,39.80
2018-06-15T03:50:44.878Z,40.50
2018-06-15T03:54:48.304Z,38.90
2018-06-15T03:58:51.962Z,42.53
2018-06-15T04:02:55.294Z,46.53
2018-06-15T04:06:58.723Z,42.97
2018-06-15T04:11:02.055Z,46.77
2018-06-15T04:15:05.386Z,39.47
2018-06-15T04:19:08.749Z,38.90
2018-06-15T04:23:12.103Z,40.50
2018-06-15T04:27:15.454Z,42.60
2018-06-15T04:31:18.802Z,41.53
2018-06-15T04:35:22.184Z,45.00
2018-06-15T04:39:25.522Z,42.57
2018-06-15T04:43:28.907Z,45.37
2018-06-15T04:47:32.422Z,44.10
2018-06-15T04:51:35.759Z,40.63
2018-06-15T04:55:39.100Z,48.83
2018-06-15T04:59:42.447Z,43.30
2018-06-15T05:03:45.803Z,46.37
2018-06-15T05:07:49.135Z,43.83
2018-06-15T05:11:52.501Z,42.50
2018-06-15T05:15:55.867Z,42.97
2018-06-15T05:19:59.228Z,42.03
2018-06-15T05:24:02.585Z,40.70
2018-06-15T05:28:05.914Z,39.70
2018-06-15T05:32:09.320Z,41.97
2018-06-15T05:36:12.698Z,39.67
2018-06-15T05:40:16.075Z,44.90
2018-06-15T05:44:19.418Z,41.07
2018-06-15T05:48:22.754Z,41.17
2018-06-15T05:52:26.103Z,46.53
2018-06-15T05:56:29.511Z,40.93
2018-06-15T06:00:32.973Z,37.70
2018-06-15T06:04:36.335Z,38.60
2018-06-15T06:08:39.681Z,36.57
2018-06-15T06:12:43.063Z,35.93
2018-06-15T06:16:46.431Z,33.87
2018-06-15T06:20:49.800Z,33.70
2018-06-15T06:24:53.166Z,33.30
2018-06-15T06:28:56.483Z,33.63
2018-06-15T06:32:59.839Z,33.13
2018-06-15T06:37:03.174Z,34.63
2018-06-15T06:45:16.098Z,31.73
2018-06-15T06:49:19.456Z,35.07
2018-06-15T06:53:22.804Z,30.33
2018-06-15T06:57:26.145Z,28.03
2018-06-15T07:01:29.514Z,30.53
2018-06-15T07:05:32.860Z,28.83
2018-06-15T07:09:36.247Z,32.47
2018-06-15T07:13:39.590Z,30.60
2018-06-15T07:17:42.947Z,30.77
2018-06-15T07:21:46.306Z,30.87
2018-06-15T07:25:49.650Z,29.63
2018-06-15T07:29:52.975Z,27.63
2018-06-15T07:33:56.319Z,31.07
2018-06-15T07:37:59.656Z,29.60
2018-06-15T07:42:03.008Z,29.80
2018-06-15T07:46:06.411Z,28.43
2018-06-15T07:50:09.756Z,31.73
2018-06-15T07:54:13.116Z,27.60
2018-06-15T07:58:16.492Z,28.27
2018-06-15T08:02:19.850Z,26.13
2018-06-15T08:06:23.229Z,25.80
2018-06-15T08:10:26.615Z,23.40
2018-06-15T08:14:29.974Z,27.83
2018-06-15T08:18:33.361Z,23.03
2018-06-15T08:22:36.687Z,23.10
2018-06-15T08:26:40.033Z,22.67
2018-06-15T08:30:43.378Z,21.73
2018-06-15T08:34:46.725Z,20.33
2018-06-15T08:38:50.079Z,23.57
2018-06-15T08:42:53.446Z,18.93
2018-06-15T08:46:56.794Z,18.77
2018-06-15T08:51:00.160Z,16.87
2018-06-15T08:55:03.506Z,18.93
2018-06-15T08:59:07.648Z,20.23
2018-06-15T09:03:11.474Z,14.90
2018-06-15T09:07:14.846Z,17.70
2018-06-15T09:11:18.210Z,14.50
2018-06-15T09:15:21.635Z,17.10
2018-06-15T09:19:25.270Z,19.33
2018-06-15T09:23:28.629Z,15.23
2018-06-15T09:27:32.008Z,15.13
2018-06-15T09:31:35.433Z,17.43
2018-06-15T09:35:38.782Z,12.97
2018-06-15T09:39:42.143Z,14.47
2018-06-15T09:43:45.506Z,15.67
2018-06-15T09:47:48.870Z,15.37
2018-06-15T09:51:52.232Z,9.83
2018-06-15T09:55:56.827Z,12.60
2018-06-15T10:00:00.219Z,13.93
2018-06-15T10:04:03.588Z,10.90
2018-06-15T10:08:07.072Z,14.53
2018-06-15T10:12:10.438Z,10.83
2018-06-15T10:16:13.833Z,11.87
2018-06-15T10:20:17.216Z,10.00
2018-06-15T10:24:20.572Z,8.00
2018-06-15T10:28:24.547Z,7.93
2018-06-15T10:32:27.895Z,7.67
2018-06-15T10:36:31.326Z,7.87
2018-06-15T10:40:34.679Z,8.17
2018-06-15T10:44:38.042Z,6.90
2018-06-15T10:48:41.402Z,9.43
2018-06-15T10:52:44.773Z,11.80
2018-06-15T10:56:48.143Z,9.80
2018-06-15T11:00:51.514Z,9.97
2018-06-15T11:04:54.879Z,8.10
2018-06-15T11:08:58.286Z,9.73
2018-06-15T11:13:01.657Z,9.30
2018-06-15T11:17:05.083Z,10.27
2018-06-15T11:21:08.483Z,10.47
2018-06-15T11:25:11.839Z,11.80
2018-06-15T11:29:15.207Z,10.13
2018-06-15T11:33:18.548Z,6.43
2018-06-15T11:37:22.119Z,9.43
2018-06-15T11:41:25.553Z,8.07
2018-06-15T11:45:28.900Z,7.90
2018-06-15T11:49:32.286Z,6.60
2018-06-15T11:53:35.634Z,9.50
2018-06-15T11:57:39.002Z,9.03
2018-06-15T12:01:42.471Z,7.27
2018-06-15T12:05:45.854Z,7.43
2018-06-15T12:09:49.182Z,5.13
2018-06-15T12:13:52.555Z,5.50
2018-06-15T12:17:55.918Z,11.00
2018-06-15T12:21:59.258Z,8.37
2018-06-15T12:26:02.689Z,4.57
2018-06-15T12:30:06.175Z,6.17
2018-06-15T12:34:09.532Z,7.47
2018-06-15T12:38:12.870Z,5.47
2018-06-15T12:42:16.203Z,7.17
2018-06-15T12:46:19.570Z,5.63
2018-06-15T12:50:22.915Z,5.73
2018-06-15T12:54:26.240Z,6.20
2018-06-15T12:58:29.567Z,5.97
2018-06-15T13:02:33.083Z,5.20
2018-06-15T13:06:36.435Z,6.37
2018-06-15T13:10:39.786Z,6.80
2018-06-15T13:14:43.107Z,5.73
2018-06-15T13:18:47.283Z,5.40
2018-06-15T13:22:50.802Z,8.93
2018-06-15T13:26:54.147Z,9.70
2018-06-15T13:30:57.506Z,7.00
2018-06-15T13:35:00.871Z,7.47
2018-06-15T13:39:07.596Z,5.10
2018-06-15T13:43:10.956Z,6.17
2018-06-15T13:47:14.362Z,5.13
2018-06-15T13:51:18.222Z,8.43
2018-06-15T13:55:21.551Z,5.40
2018-06-15T13:59:24.978Z,5.93
2018-06-15T14:03:28.327Z,5.53
2018-06-15T14:07:31.699Z,5.00
2018-06-15T14:11:35.063Z,5.60
2018-06-15T14:15:38.474Z,6.73
2018-06-15T14:19:41.840Z,6.17
2018-06-15T14:23:45.215Z,5.80
2018-06-15T14:27:48.558Z,5.90
2018-06-15T14:31:52.167Z,7.53
2018-06-15T14:35:55.535Z,8.10
2018-06-15T14:39:58.852Z,6.40
2018-06-15T14:44:02.189Z,6.10
2018-06-15T14:48:05.649Z,7.20
2018-06-15T14:52:09.074Z,7.00
2018-06-15T14:56:12.424Z,5.20
2018-06-15T15:00:15.754Z,4.80
2018-06-15T15:04:19.087Z,6.57
2018-06-15T15:08:22.427Z,6.10
2018-06-15T15:12:25.824Z,5.40
2018-06-15T15:16:29.266Z,10.33
2018-06-15T15:20:33.008Z,8.07
2018-06-15T15:24:36.356Z,8.20
2018-06-15T15:28:39.978Z,8.13
2018-06-15T15:32:43.443Z,9.23
2018-06-15T15:36:46.855Z,12.40
2018-06-15T15:40:50.170Z,7.30
2018-06-15T15:44:53.593Z,7.87
2018-06-15T15:48:57.990Z,7.70
2018-06-15T15:53:01.311Z,7.63
2018-06-15T15:57:04.728Z,10.13
2018-06-15T16:01:08.070Z,5.70
2018-06-15T16:05:11.438Z,7.70
2018-06-15T16:09:14.907Z,8.17
2018-06-15T16:13:18.315Z,7.43
2018-06-15T16:17:21.647Z,6.23
2018-06-15T16:21:25.014Z,7.67
2018-06-15T16:25:28.408Z,6.67
2018-06-15T16:29:31.774Z,8.30
2018-06-15T16:33:35.115Z,7.87
2018-06-15T16:37:38.458Z,7.30
2018-06-15T16:41:41.802Z,7.60
2018-06-15T16:45:45.155Z,6.53
2018-06-15T16:49:48.514Z,7.33
2018-06-15T16:53:51.874Z,6.43
2018-06-15T16:57:55.244Z,6.47
2018-06-15T17:01:59.778Z,6.57
2018-06-15T17:06:03.128Z,7.33
2018-06-15T17:10:06.551Z,7.37
2018-06-15T17:14:09.991Z,6.80
2018-06-15T17:18:13.400Z,5.93
2018-06-15T17:22:16.815Z,6.37
2018-06-15T17:26:20.210Z,7.93
2018-06-15T17:30:24.427Z,8.83
2018-06-15T17:34:27.765Z,8.63
2018-06-15T17:38:31.117Z,8.33
2018-06-15T17:42:34.491Z,5.97
2018-06-15T17:46:38.028Z,7.43
2018-06-15T17:50:41.417Z,9.97
2018-06-15T17:54:44.801Z,9.53
2018-06-15T17:58:48.166Z,6.13
2018-06-15T18:02:51.796Z,6.50
2018-06-15T18:06:55.179Z,6.47
2018-06-15T18:10:58.555Z,9.03
2018-06-15T18:15:01.923Z,8.20
2018-06-15T18:19:05.391Z,8.27
2018-06-15T18:23:08.868Z,7.57
2018-06-15T18:27:12.358Z,7.87
2018-06-15T18:31:15.886Z,6.93
2018-06-15T18:35:19.328Z,7.53
2018-06-15T18:39:22.723Z,7.50
2018-06-15T18:43:26.080Z,7.33
2018-06-15T18:47:29.167Z,8.03
2018-06-15T18:51:32.536Z,7.17
2018-06-15T18:55:35.938Z,6.87
2018-06-15T18:59:39.318Z,8.53
2018-06-15T19:03:42.734Z,5.93
2018-06-15T19:07:46.187Z,7.07
2018-06-15T19:11:49.611Z,7.93
2018-06-15T19:15:53.013Z,6.40
2018-06-15T19:19:56.451Z,11.63
2018-06-15T19:23:59.826Z,9.53
2018-06-15T19:28:03.198Z,6.70
2018-06-15T19:32:06.555Z,7.43
2018-06-15T19:36:09.921Z,6.37
2018-06-15T19:40:12.998Z,11.73
2018-06-15T19:44:16.347Z,11.60
2018-06-15T19:48:19.719Z,7.33
2018-06-15T19:52:23.056Z,7.23
2018-06-15T19:56:26.416Z,8.20
2018-06-15T20:00:29.751Z,8.30
2018-06-15T20:04:32.805Z,9.47
2018-06-15T20:08:36.175Z,7.93
2018-06-15T20:12:39.543Z,10.13
2018-06-15T20:16:42.908Z,9.13
2018-06-15T20:20:46.283Z,8.87
2018-06-15T20:24:49.658Z,8.27
2018-06-15T20:28:53.011Z,8.73
2018-06-15T20:32:56.371Z,8.20
2018-06-15T20:36:59.720Z,7.60
2018-06-15T20:41:03.125Z,8.20
2018-06-15T20:45:08.255Z,11.43
2018-06-15T20:49:11.648Z,8.67
2018-06-15T20:53:14.997Z,8.67
2018-06-15T20:57:18.318Z,9.13
2018-06-15T21:01:21.914Z,7.83
2018-06-15T21:05:25.256Z,8.87
2018-06-15T21:09:28.595Z,9.67
2018-06-15T21:13:31.938Z,9.40
2018-06-15T21:17:35.299Z,10.63
2018-06-15T21:21:38.723Z,10.17
2018-06-15T21:25:42.080Z,10.67
2018-06-15T21:29:47.487Z,9.70
2018-06-15T21:33:50.849Z,10.87
2018-06-15T21:37:54.346Z,9.70
2018-06-15T21:41:57.684Z,9.00
2018-06-15T21:46:01.000Z,10.33
2018-06-15T21:50:04.361Z,9.87
2018-06-15T21:54:07.698Z,10.17
2018-06-15T21:58:11.039Z,11.60
2018-06-15T22:02:14.382Z,11.20
2018-06-15T22:06:17.724Z,10.23
2018-06-15T22:10:21.162Z,10.37
2018-06-15T22:14:24.490Z,11.83
2018-06-15T22:18:27.859Z,10.57
2018-06-15T22:22:31.187Z,8.83
2018-06-15T22:26:34.511Z,9.17
2018-06-15T22:30:47.976Z,10.37
2018-06-15T22:34:51.507Z,9.70
2018-06-15T22:38:54.857Z,10.60
2018-06-15T22:42:58.213Z,9.70
2018-06-15T22:47:01.538Z,9.67
2018-06-15T22:51:04.887Z,10.90
2018-06-15T22:55:08.245Z,10.53
2018-06-15T22:59:11.581Z,9.67
2018-06-15T23:03:14.915Z,12.30
2018-06-15T23:07:18.219Z,9.90
2018-06-15T23:11:21.604Z,10.37
2018-06-15T23:15:24.966Z,10.40
2018-06-15T23:19:28.298Z,9.90
2018-06-15T23:23:31.635Z,9.40
2018-06-15T23:27:35.123Z,10.00
2018-06-15T23:31:38.443Z,9.97
2018-06-15T23:35:41.858Z,9.97
2018-06-15T23:39:45.339Z,10.67
2018-06-15T23:43:48.687Z,9.90
2018-06-15T23:47:52.024Z,11.00
2018-06-15T23:51:55.379Z,12.30
2018-06-15T23:55:58.754Z,11.03
